sensor_id;sensor_type;location;lat;lon;timestamp;temperature;humidity
75380;HTU21D;65641;44.714;37.756;2023-05-07T00:00:00;18.84;67.86
75380;HTU21D;65641;44.714;37.756;2023-05-07T00:01:08;18.84;67.88
75380;HTU21D;65641;44.714;37.756;2023-05-07T00:02:11;18.83;67.92
75380;HTU21D;65641;44.714;37.756;2023-05-07T00:03:14;18.84;67.91
75380;HTU21D;65641;44.714;37.756;2023-05-07T00:04:17;18.82;67.91
75380;HTU21D;65641;44.714;37.756;2023-05-07T00:05:21;18.82;67.94
75380;HTU21D;65641;44.714;37.756;2023-05-07T00:06:32;18.82;67.95
75380;HTU21D;65641;44.714;37.756;2023-05-07T00:07:35;18.83;67.94
75380;HTU21D;65641;44.714;37.756;2023-05-07T00:08:38;18.80;67.94
75380;HTU21D;65641;44.714;37.756;2023-05-07T00:09:41;18.81;67.99
75380;HTU21D;65641;44.714;37.756;2023-05-07T00:10:44;18.80;67.97
75380;HTU21D;65641;44.714;37.756;2023-05-07T00:11:48;18.79;67.98
75380;HTU21D;65641;44.714;37.756;2023-05-07T00:12:51;18.78;67.97
75380;HTU21D;65641;44.714;37.756;2023-05-07T00:13:54;18.78;67.97
75380;HTU21D;65641;44.714;37.756;2023-05-07T00:14:58;18.77;67.98
75380;HTU21D;65641;44.714;37.756;2023-05-07T00:16:03;18.77;68.01
75380;HTU21D;65641;44.714;37.756;2023-05-07T00:17:07;18.77;68.02
75380;HTU21D;65641;44.714;37.756;2023-05-07T00:18:10;18.76;68.07
75380;HTU21D;65641;44.714;37.756;2023-05-07T00:19:13;18.76;68.05
75380;HTU21D;65641;44.714;37.756;2023-05-07T00:20:15;18.76;68.05
75380;HTU21D;65641;44.714;37.756;2023-05-07T00:21:18;18.74;68.07
75380;HTU21D;65641;44.714;37.756;2023-05-07T00:22:21;18.73;68.06
75380;HTU21D;65641;44.714;37.756;2023-05-07T00:23:24;18.73;68.05
75380;HTU21D;65641;44.714;37.756;2023-05-07T00:24:27;18.72;68.04
75380;HTU21D;65641;44.714;37.756;2023-05-07T00:25:31;18.71;68.05
75380;HTU21D;65641;44.714;37.756;2023-05-07T00:26:34;18.72;68.08
75380;HTU21D;65641;44.714;37.756;2023-05-07T00:27:37;18.70;68.08
75380;HTU21D;65641;44.714;37.756;2023-05-07T00:28:40;18.70;68.09
75380;HTU21D;65641;44.714;37.756;2023-05-07T00:29:43;18.69;68.09
75380;HTU21D;65641;44.714;37.756;2023-05-07T00:30:46;18.69;68.10
75380;HTU21D;65641;44.714;37.756;2023-05-07T00:31:49;18.69;68.08
75380;HTU21D;65641;44.714;37.756;2023-05-07T00:32:53;18.67;68.08
75380;HTU21D;65641;44.714;37.756;2023-05-07T00:33:56;18.67;68.08
75380;HTU21D;65641;44.714;37.756;2023-05-07T00:34:59;18.66;68.09
75380;HTU21D;65641;44.714;37.756;2023-05-07T00:36:02;18.65;68.11
75380;HTU21D;65641;44.714;37.756;2023-05-07T00:37:05;18.64;68.14
75380;HTU21D;65641;44.714;37.756;2023-05-07T00:38:09;18.64;68.16
75380;HTU21D;65641;44.714;37.756;2023-05-07T00:39:12;18.64;68.23
75380;HTU21D;65641;44.714;37.756;2023-05-07T00:40:15;18.63;68.25
75380;HTU21D;65641;44.714;37.756;2023-05-07T00:41:18;18.63;68.26
75380;HTU21D;65641;44.714;37.756;2023-05-07T00:42:21;18.62;68.27
75380;HTU21D;65641;44.714;37.756;2023-05-07T00:43:24;18.61;68.27
75380;HTU21D;65641;44.714;37.756;2023-05-07T00:44:27;18.59;68.31
75380;HTU21D;65641;44.714;37.756;2023-05-07T00:45:32;18.59;68.32
75380;HTU21D;65641;44.714;37.756;2023-05-07T00:46:35;18.59;68.35
75380;HTU21D;65641;44.714;37.756;2023-05-07T00:47:39;18.59;68.39
75380;HTU21D;65641;44.714;37.756;2023-05-07T00:48:43;18.59;68.42
75380;HTU21D;65641;44.714;37.756;2023-05-07T00:49:46;18.56;68.46
75380;HTU21D;65641;44.714;37.756;2023-05-07T00:50:49;18.57;68.46
75380;HTU21D;65641;44.714;37.756;2023-05-07T00:51:52;18.57;68.48
75380;HTU21D;65641;44.714;37.756;2023-05-07T00:52:55;18.57;68.51
75380;HTU21D;65641;44.714;37.756;2023-05-07T00:54:00;18.56;68.53
75380;HTU21D;65641;44.714;37.756;2023-05-07T00:55:05;18.55;68.52
75380;HTU21D;65641;44.714;37.756;2023-05-07T00:56:09;18.55;68.51
75380;HTU21D;65641;44.714;37.756;2023-05-07T00:57:13;18.54;68.54
75380;HTU21D;65641;44.714;37.756;2023-05-07T00:58:17;18.54;68.54
75380;HTU21D;65641;44.714;37.756;2023-05-07T00:59:20;18.54;68.58
75380;HTU21D;65641;44.714;37.756;2023-05-07T01:00:23;18.53;68.58
75380;HTU21D;65641;44.714;37.756;2023-05-07T01:01:27;18.52;68.60
75380;HTU21D;65641;44.714;37.756;2023-05-07T01:02:30;18.52;68.62
75380;HTU21D;65641;44.714;37.756;2023-05-07T01:03:33;18.51;68.65
75380;HTU21D;65641;44.714;37.756;2023-05-07T01:04:36;18.51;68.66
75380;HTU21D;65641;44.714;37.756;2023-05-07T01:05:39;18.50;68.69
75380;HTU21D;65641;44.714;37.756;2023-05-07T01:06:44;18.50;68.70
75380;HTU21D;65641;44.714;37.756;2023-05-07T01:07:48;18.49;68.75
75380;HTU21D;65641;44.714;37.756;2023-05-07T01:08:52;18.48;68.75
75380;HTU21D;65641;44.714;37.756;2023-05-07T01:09:58;18.48;68.77
75380;HTU21D;65641;44.714;37.756;2023-05-07T01:11:01;18.48;68.77
75380;HTU21D;65641;44.714;37.756;2023-05-07T01:12:04;18.46;68.77
75380;HTU21D;65641;44.714;37.756;2023-05-07T01:13:10;18.47;68.78
75380;HTU21D;65641;44.714;37.756;2023-05-07T01:14:13;18.44;68.77
75380;HTU21D;65641;44.714;37.756;2023-05-07T01:15:17;18.43;68.76
75380;HTU21D;65641;44.714;37.756;2023-05-07T01:16:20;18.42;68.78
75380;HTU21D;65641;44.714;37.756;2023-05-07T01:17:24;18.43;68.78
75380;HTU21D;65641;44.714;37.756;2023-05-07T01:18:27;18.41;68.78
75380;HTU21D;65641;44.714;37.756;2023-05-07T01:19:33;18.41;68.77
75380;HTU21D;65641;44.714;37.756;2023-05-07T01:20:36;18.39;68.77
75380;HTU21D;65641;44.714;37.756;2023-05-07T01:21:39;18.38;68.77
75380;HTU21D;65641;44.714;37.756;2023-05-07T01:22:46;18.37;68.74
75380;HTU21D;65641;44.714;37.756;2023-05-07T01:23:49;18.36;68.71
75380;HTU21D;65641;44.714;37.756;2023-05-07T01:24:52;18.35;68.73
75380;HTU21D;65641;44.714;37.756;2023-05-07T01:25:56;18.34;68.75
75380;HTU21D;65641;44.714;37.756;2023-05-07T01:27:01;18.32;68.75
75380;HTU21D;65641;44.714;37.756;2023-05-07T01:28:06;18.29;68.77
75380;HTU21D;65641;44.714;37.756;2023-05-07T01:29:12;18.29;68.81
75380;HTU21D;65641;44.714;37.756;2023-05-07T01:30:16;18.28;68.84
75380;HTU21D;65641;44.714;37.756;2023-05-07T01:31:21;18.27;68.88
75380;HTU21D;65641;44.714;37.756;2023-05-07T01:32:40;18.26;68.91
75380;HTU21D;65641;44.714;37.756;2023-05-07T01:33:45;18.25;68.94
75380;HTU21D;65641;44.714;37.756;2023-05-07T01:34:50;18.23;68.97
75380;HTU21D;65641;44.714;37.756;2023-05-07T01:35:54;18.22;69.00
75380;HTU21D;65641;44.714;37.756;2023-05-07T01:36:59;18.22;69.00
75380;HTU21D;65641;44.714;37.756;2023-05-07T01:38:03;18.21;69.00
75380;HTU21D;65641;44.714;37.756;2023-05-07T01:39:08;18.19;69.01
75380;HTU21D;65641;44.714;37.756;2023-05-07T01:40:12;18.19;69.04
75380;HTU21D;65641;44.714;37.756;2023-05-07T01:41:15;18.17;69.05
75380;HTU21D;65641;44.714;37.756;2023-05-07T01:42:18;18.17;69.07
75380;HTU21D;65641;44.714;37.756;2023-05-07T01:43:21;18.17;69.10
75380;HTU21D;65641;44.714;37.756;2023-05-07T01:44:24;18.14;69.06
75380;HTU21D;65641;44.714;37.756;2023-05-07T01:45:27;18.13;69.07
75380;HTU21D;65641;44.714;37.756;2023-05-07T01:46:31;18.12;69.06
75380;HTU21D;65641;44.714;37.756;2023-05-07T01:47:35;18.11;69.03
75380;HTU21D;65641;44.714;37.756;2023-05-07T01:48:42;18.09;69.00
75380;HTU21D;65641;44.714;37.756;2023-05-07T01:49:48;18.07;69.00
75380;HTU21D;65641;44.714;37.756;2023-05-07T01:50:51;18.06;69.02
75380;HTU21D;65641;44.714;37.756;2023-05-07T01:51:54;18.03;69.03
75380;HTU21D;65641;44.714;37.756;2023-05-07T01:52:58;18.00;69.03
75380;HTU21D;65641;44.714;37.756;2023-05-07T01:54:01;18.00;69.04
75380;HTU21D;65641;44.714;37.756;2023-05-07T01:55:05;17.98;69.07
75380;HTU21D;65641;44.714;37.756;2023-05-07T01:56:09;17.96;69.08
75380;HTU21D;65641;44.714;37.756;2023-05-07T01:57:14;17.94;69.11
75380;HTU21D;65641;44.714;37.756;2023-05-07T01:58:17;17.92;69.13
75380;HTU21D;65641;44.714;37.756;2023-05-07T01:59:19;17.90;69.15
75380;HTU21D;65641;44.714;37.756;2023-05-07T02:00:22;17.88;69.21
75380;HTU21D;65641;44.714;37.756;2023-05-07T02:01:25;17.85;69.25
75380;HTU21D;65641;44.714;37.756;2023-05-07T02:02:28;17.83;69.28
75380;HTU21D;65641;44.714;37.756;2023-05-07T02:03:33;17.81;69.33
75380;HTU21D;65641;44.714;37.756;2023-05-07T02:04:43;17.78;69.36
75380;HTU21D;65641;44.714;37.756;2023-05-07T02:05:47;17.77;69.43
75380;HTU21D;65641;44.714;37.756;2023-05-07T02:07:05;17.73;69.49
75380;HTU21D;65641;44.714;37.756;2023-05-07T02:08:08;17.73;69.53
75380;HTU21D;65641;44.714;37.756;2023-05-07T02:09:11;17.72;69.56
75380;HTU21D;65641;44.714;37.756;2023-05-07T02:10:16;17.68;69.58
75380;HTU21D;65641;44.714;37.756;2023-05-07T02:11:19;17.66;69.64
75380;HTU21D;65641;44.714;37.756;2023-05-07T02:12:22;17.65;69.69
75380;HTU21D;65641;44.714;37.756;2023-05-07T02:13:29;17.62;69.77
75380;HTU21D;65641;44.714;37.756;2023-05-07T02:14:32;17.61;69.79
75380;HTU21D;65641;44.714;37.756;2023-05-07T02:15:35;17.59;69.85
75380;HTU21D;65641;44.714;37.756;2023-05-07T02:16:38;17.58;69.89
75380;HTU21D;65641;44.714;37.756;2023-05-07T02:18:01;17.56;69.97
75380;HTU21D;65641;44.714;37.756;2023-05-07T02:19:04;17.56;69.99
75380;HTU21D;65641;44.714;37.756;2023-05-07T02:20:08;17.53;70.03
75380;HTU21D;65641;44.714;37.756;2023-05-07T02:21:16;17.52;70.06
75380;HTU21D;65641;44.714;37.756;2023-05-07T02:22:20;17.51;70.06
75380;HTU21D;65641;44.714;37.756;2023-05-07T02:23:23;17.51;70.12
75380;HTU21D;65641;44.714;37.756;2023-05-07T02:24:26;17.50;70.13
75380;HTU21D;65641;44.714;37.756;2023-05-07T02:25:29;17.48;70.17
75380;HTU21D;65641;44.714;37.756;2023-05-07T02:26:33;17.47;70.19
75380;HTU21D;65641;44.714;37.756;2023-05-07T02:27:36;17.47;70.21
75380;HTU21D;65641;44.714;37.756;2023-05-07T02:28:39;17.46;70.24
75380;HTU21D;65641;44.714;37.756;2023-05-07T02:29:42;17.44;70.26
75380;HTU21D;65641;44.714;37.756;2023-05-07T02:30:45;17.43;70.26
75380;HTU21D;65641;44.714;37.756;2023-05-07T02:31:48;17.43;70.27
75380;HTU21D;65641;44.714;37.756;2023-05-07T02:32:55;17.40;70.29
75380;HTU21D;65641;44.714;37.756;2023-05-07T02:33:59;17.40;70.30
75380;HTU21D;65641;44.714;37.756;2023-05-07T02:35:02;17.39;70.31
75380;HTU21D;65641;44.714;37.756;2023-05-07T02:36:06;17.38;70.30
75380;HTU21D;65641;44.714;37.756;2023-05-07T02:37:11;17.35;70.32
75380;HTU21D;65641;44.714;37.756;2023-05-07T02:38:14;17.36;70.36
75380;HTU21D;65641;44.714;37.756;2023-05-07T02:39:18;17.35;70.37
75380;HTU21D;65641;44.714;37.756;2023-05-07T02:40:21;17.34;70.38
75380;HTU21D;65641;44.714;37.756;2023-05-07T02:41:24;17.34;70.40
75380;HTU21D;65641;44.714;37.756;2023-05-07T02:42:27;17.32;70.43
75380;HTU21D;65641;44.714;37.756;2023-05-07T02:43:29;17.30;70.44
75380;HTU21D;65641;44.714;37.756;2023-05-07T02:44:32;17.29;70.45
75380;HTU21D;65641;44.714;37.756;2023-05-07T02:45:35;17.25;70.48
75380;HTU21D;65641;44.714;37.756;2023-05-07T02:46:41;17.22;70.46
75380;HTU21D;65641;44.714;37.756;2023-05-07T02:47:46;17.22;70.48
75380;HTU21D;65641;44.714;37.756;2023-05-07T02:48:49;17.22;70.52
75380;HTU21D;65641;44.714;37.756;2023-05-07T02:49:53;17.19;70.55
75380;HTU21D;65641;44.714;37.756;2023-05-07T02:50:56;17.17;70.59
75380;HTU21D;65641;44.714;37.756;2023-05-07T02:51:59;17.17;70.63
75380;HTU21D;65641;44.714;37.756;2023-05-07T02:53:02;17.15;70.66
75380;HTU21D;65641;44.714;37.756;2023-05-07T02:54:06;17.11;70.72
75380;HTU21D;65641;44.714;37.756;2023-05-07T02:55:09;17.11;70.74
75380;HTU21D;65641;44.714;37.756;2023-05-07T02:56:12;17.09;70.80
75380;HTU21D;65641;44.714;37.756;2023-05-07T02:57:14;17.09;70.81
75380;HTU21D;65641;44.714;37.756;2023-05-07T02:58:17;17.08;70.85
75380;HTU21D;65641;44.714;37.756;2023-05-07T02:59:20;17.07;70.89
75380;HTU21D;65641;44.714;37.756;2023-05-07T03:00:25;17.07;70.94
75380;HTU21D;65641;44.714;37.756;2023-05-07T03:01:54;17.04;70.97
75380;HTU21D;65641;44.714;37.756;2023-05-07T03:02:56;17.03;71.01
75380;HTU21D;65641;44.714;37.756;2023-05-07T03:03:59;17.03;71.03
75380;HTU21D;65641;44.714;37.756;2023-05-07T03:05:03;17.03;71.06
75380;HTU21D;65641;44.714;37.756;2023-05-07T03:06:06;17.03;71.07
75380;HTU21D;65641;44.714;37.756;2023-05-07T03:07:09;17.01;71.06
75380;HTU21D;65641;44.714;37.756;2023-05-07T03:08:12;17.02;71.06
75380;HTU21D;65641;44.714;37.756;2023-05-07T03:09:15;17.02;71.06
75380;HTU21D;65641;44.714;37.756;2023-05-07T03:10:18;17.02;71.04
75380;HTU21D;65641;44.714;37.756;2023-05-07T03:11:21;17.01;71.06
75380;HTU21D;65641;44.714;37.756;2023-05-07T03:12:24;17.01;71.01
75380;HTU21D;65641;44.714;37.756;2023-05-07T03:13:27;17.01;71.02
75380;HTU21D;65641;44.714;37.756;2023-05-07T03:14:30;17.00;71.00
75380;HTU21D;65641;44.714;37.756;2023-05-07T03:15:33;17.00;70.97
75380;HTU21D;65641;44.714;37.756;2023-05-07T03:16:36;17.01;70.97
75380;HTU21D;65641;44.714;37.756;2023-05-07T03:17:39;17.01;70.96
75380;HTU21D;65641;44.714;37.756;2023-05-07T03:18:42;17.01;70.93
75380;HTU21D;65641;44.714;37.756;2023-05-07T03:19:46;17.01;70.92
75380;HTU21D;65641;44.714;37.756;2023-05-07T03:20:48;17.00;70.93
75380;HTU21D;65641;44.714;37.756;2023-05-07T03:21:53;17.00;70.91
75380;HTU21D;65641;44.714;37.756;2023-05-07T03:22:56;17.00;70.90
75380;HTU21D;65641;44.714;37.756;2023-05-07T03:23:59;16.99;70.90
75380;HTU21D;65641;44.714;37.756;2023-05-07T03:25:02;16.99;70.89
75380;HTU21D;65641;44.714;37.756;2023-05-07T03:26:10;16.98;70.93
75380;HTU21D;65641;44.714;37.756;2023-05-07T03:27:13;16.98;70.90
75380;HTU21D;65641;44.714;37.756;2023-05-07T03:28:17;16.98;70.92
75380;HTU21D;65641;44.714;37.756;2023-05-07T03:29:28;16.99;70.89
75380;HTU21D;65641;44.714;37.756;2023-05-07T03:30:31;16.98;70.88
75380;HTU21D;65641;44.714;37.756;2023-05-07T03:31:34;16.99;70.88
75380;HTU21D;65641;44.714;37.756;2023-05-07T03:32:37;16.98;70.88
75380;HTU21D;65641;44.714;37.756;2023-05-07T03:33:59;16.98;70.87
75380;HTU21D;65641;44.714;37.756;2023-05-07T03:35:02;16.98;70.87
75380;HTU21D;65641;44.714;37.756;2023-05-07T03:36:06;16.99;70.89
75380;HTU21D;65641;44.714;37.756;2023-05-07T03:37:09;16.98;70.88
75380;HTU21D;65641;44.714;37.756;2023-05-07T03:38:12;17.00;70.85
75380;HTU21D;65641;44.714;37.756;2023-05-07T03:39:15;17.00;70.81
75380;HTU21D;65641;44.714;37.756;2023-05-07T03:40:18;17.01;70.77
75380;HTU21D;65641;44.714;37.756;2023-05-07T03:41:25;17.01;70.77
75380;HTU21D;65641;44.714;37.756;2023-05-07T03:42:29;17.01;70.81
75380;HTU21D;65641;44.714;37.756;2023-05-07T03:43:31;17.04;70.87
75380;HTU21D;65641;44.714;37.756;2023-05-07T03:44:40;17.03;70.90
75380;HTU21D;65641;44.714;37.756;2023-05-07T03:45:43;17.05;70.90
75380;HTU21D;65641;44.714;37.756;2023-05-07T03:46:50;17.05;70.84
75380;HTU21D;65641;44.714;37.756;2023-05-07T03:47:52;17.06;70.81
75380;HTU21D;65641;44.714;37.756;2023-05-07T03:48:56;17.08;70.81
75380;HTU21D;65641;44.714;37.756;2023-05-07T03:50:00;17.09;70.78
75380;HTU21D;65641;44.714;37.756;2023-05-07T03:51:05;17.11;70.74
75380;HTU21D;65641;44.714;37.756;2023-05-07T03:52:08;17.11;70.67
75380;HTU21D;65641;44.714;37.756;2023-05-07T03:53:11;17.15;70.68
75380;HTU21D;65641;44.714;37.756;2023-05-07T03:54:14;17.15;70.69
75380;HTU21D;65641;44.714;37.756;2023-05-07T03:55:20;17.18;70.58
75380;HTU21D;65641;44.714;37.756;2023-05-07T03:56:27;17.18;70.49
75380;HTU21D;65641;44.714;37.756;2023-05-07T03:57:32;17.19;70.43
75380;HTU21D;65641;44.714;37.756;2023-05-07T03:58:35;17.20;70.37
75380;HTU21D;65641;44.714;37.756;2023-05-07T03:59:42;17.22;70.23
75380;HTU21D;65641;44.714;37.756;2023-05-07T04:00:45;17.20;70.23
75380;HTU21D;65641;44.714;37.756;2023-05-07T04:01:55;17.22;70.25
75380;HTU21D;65641;44.714;37.756;2023-05-07T04:03:01;17.22;70.29
75380;HTU21D;65641;44.714;37.756;2023-05-07T04:04:06;17.23;70.28
75380;HTU21D;65641;44.714;37.756;2023-05-07T04:05:10;17.23;70.26
75380;HTU21D;65641;44.714;37.756;2023-05-07T04:06:16;17.25;70.21
75380;HTU21D;65641;44.714;37.756;2023-05-07T04:07:22;17.25;70.17
75380;HTU21D;65641;44.714;37.756;2023-05-07T04:08:26;17.26;70.11
75380;HTU21D;65641;44.714;37.756;2023-05-07T04:09:29;17.26;70.06
75380;HTU21D;65641;44.714;37.756;2023-05-07T04:10:33;17.28;70.07
75380;HTU21D;65641;44.714;37.756;2023-05-07T04:11:40;17.28;70.08
75380;HTU21D;65641;44.714;37.756;2023-05-07T04:12:45;17.28;70.09
75380;HTU21D;65641;44.714;37.756;2023-05-07T04:13:52;17.29;70.09
75380;HTU21D;65641;44.714;37.756;2023-05-07T04:14:57;17.29;70.03
75380;HTU21D;65641;44.714;37.756;2023-05-07T04:16:02;17.29;69.95
75380;HTU21D;65641;44.714;37.756;2023-05-07T04:17:06;17.30;69.86
75380;HTU21D;65641;44.714;37.756;2023-05-07T04:18:13;17.30;69.84
75380;HTU21D;65641;44.714;37.756;2023-05-07T04:19:18;17.30;69.82
75380;HTU21D;65641;44.714;37.756;2023-05-07T04:20:24;17.30;69.74
75380;HTU21D;65641;44.714;37.756;2023-05-07T04:21:33;17.31;69.69
75380;HTU21D;65641;44.714;37.756;2023-05-07T04:22:37;17.30;69.67
75380;HTU21D;65641;44.714;37.756;2023-05-07T04:23:39;17.31;69.66
75380;HTU21D;65641;44.714;37.756;2023-05-07T04:24:45;17.30;69.65
75380;HTU21D;65641;44.714;37.756;2023-05-07T04:25:48;17.29;69.63
75380;HTU21D;65641;44.714;37.756;2023-05-07T04:26:57;17.31;69.61
75380;HTU21D;65641;44.714;37.756;2023-05-07T04:28:01;17.30;69.64
75380;HTU21D;65641;44.714;37.756;2023-05-07T04:29:05;17.31;69.69
75380;HTU21D;65641;44.714;37.756;2023-05-07T04:30:09;17.31;69.69
75380;HTU21D;65641;44.714;37.756;2023-05-07T04:31:14;17.32;69.72
75380;HTU21D;65641;44.714;37.756;2023-05-07T04:32:18;17.32;69.74
75380;HTU21D;65641;44.714;37.756;2023-05-07T04:33:21;17.32;69.72
75380;HTU21D;65641;44.714;37.756;2023-05-07T04:34:25;17.33;69.72
75380;HTU21D;65641;44.714;37.756;2023-05-07T04:35:28;17.33;69.77
75380;HTU21D;65641;44.714;37.756;2023-05-07T04:36:31;17.35;69.81
75380;HTU21D;65641;44.714;37.756;2023-05-07T04:37:39;17.36;69.82
75380;HTU21D;65641;44.714;37.756;2023-05-07T04:38:43;17.37;69.87
75380;HTU21D;65641;44.714;37.756;2023-05-07T04:39:46;17.38;69.86
75380;HTU21D;65641;44.714;37.756;2023-05-07T04:40:49;17.39;69.86
75380;HTU21D;65641;44.714;37.756;2023-05-07T04:41:56;17.43;69.87
75380;HTU21D;65641;44.714;37.756;2023-05-07T04:42:59;17.43;69.87
75380;HTU21D;65641;44.714;37.756;2023-05-07T04:44:05;17.47;69.87
75380;HTU21D;65641;44.714;37.756;2023-05-07T04:45:09;17.48;69.81
75380;HTU21D;65641;44.714;37.756;2023-05-07T04:46:14;17.49;69.73
75380;HTU21D;65641;44.714;37.756;2023-05-07T04:47:18;17.51;69.51
75380;HTU21D;65641;44.714;37.756;2023-05-07T04:48:21;17.50;69.28
75380;HTU21D;65641;44.714;37.756;2023-05-07T04:49:25;17.50;69.23
75380;HTU21D;65641;44.714;37.756;2023-05-07T04:50:29;17.50;69.22
75380;HTU21D;65641;44.714;37.756;2023-05-07T04:51:36;17.51;69.28
75380;HTU21D;65641;44.714;37.756;2023-05-07T04:52:40;17.51;69.28
75380;HTU21D;65641;44.714;37.756;2023-05-07T04:53:43;17.52;69.21
75380;HTU21D;65641;44.714;37.756;2023-05-07T04:54:46;17.53;69.09
75380;HTU21D;65641;44.714;37.756;2023-05-07T04:55:55;17.53;69.00
75380;HTU21D;65641;44.714;37.756;2023-05-07T04:57:02;17.52;68.94
75380;HTU21D;65641;44.714;37.756;2023-05-07T04:58:06;17.51;68.85
75380;HTU21D;65641;44.714;37.756;2023-05-07T04:59:11;17.51;68.82
75380;HTU21D;65641;44.714;37.756;2023-05-07T05:00:15;17.50;68.81
75380;HTU21D;65641;44.714;37.756;2023-05-07T05:01:20;17.50;68.79
75380;HTU21D;65641;44.714;37.756;2023-05-07T05:02:23;17.47;68.84
75380;HTU21D;65641;44.714;37.756;2023-05-07T05:03:26;17.48;68.90
75380;HTU21D;65641;44.714;37.756;2023-05-07T05:04:30;17.47;68.97
75380;HTU21D;65641;44.714;37.756;2023-05-07T05:05:33;17.46;69.04
75380;HTU21D;65641;44.714;37.756;2023-05-07T05:06:37;17.44;69.07
75380;HTU21D;65641;44.714;37.756;2023-05-07T05:07:40;17.43;69.13
75380;HTU21D;65641;44.714;37.756;2023-05-07T05:08:43;17.43;69.20
75380;HTU21D;65641;44.714;37.756;2023-05-07T05:09:48;17.41;69.29
75380;HTU21D;65641;44.714;37.756;2023-05-07T05:10:51;17.40;69.29
75380;HTU21D;65641;44.714;37.756;2023-05-07T05:11:54;17.39;69.28
75380;HTU21D;65641;44.714;37.756;2023-05-07T05:12:57;17.39;69.27
75380;HTU21D;65641;44.714;37.756;2023-05-07T05:14:01;17.39;69.34
75380;HTU21D;65641;44.714;37.756;2023-05-07T05:15:05;17.40;69.42
75380;HTU21D;65641;44.714;37.756;2023-05-07T05:16:08;17.43;69.54
75380;HTU21D;65641;44.714;37.756;2023-05-07T05:17:11;17.44;69.64
75380;HTU21D;65641;44.714;37.756;2023-05-07T05:18:14;17.45;69.77
75380;HTU21D;65641;44.714;37.756;2023-05-07T05:19:17;17.48;69.81
75380;HTU21D;65641;44.714;37.756;2023-05-07T05:20:19;17.49;69.81
75380;HTU21D;65641;44.714;37.756;2023-05-07T05:21:23;17.52;69.79
75380;HTU21D;65641;44.714;37.756;2023-05-07T05:22:32;17.55;69.81
75380;HTU21D;65641;44.714;37.756;2023-05-07T05:23:36;17.60;69.74
75380;HTU21D;65641;44.714;37.756;2023-05-07T05:24:39;17.63;69.71
75380;HTU21D;65641;44.714;37.756;2023-05-07T05:25:42;17.69;69.58
75380;HTU21D;65641;44.714;37.756;2023-05-07T05:26:47;17.74;69.46
75380;HTU21D;65641;44.714;37.756;2023-05-07T05:27:50;17.78;69.12
75380;HTU21D;65641;44.714;37.756;2023-05-07T05:28:53;17.80;68.84
75380;HTU21D;65641;44.714;37.756;2023-05-07T05:29:58;17.84;68.52
75380;HTU21D;65641;44.714;37.756;2023-05-07T05:31:05;17.88;68.34
75380;HTU21D;65641;44.714;37.756;2023-05-07T05:32:10;17.92;68.19
75380;HTU21D;65641;44.714;37.756;2023-05-07T05:33:13;17.93;68.05
75380;HTU21D;65641;44.714;37.756;2023-05-07T05:34:16;17.94;67.89
75380;HTU21D;65641;44.714;37.756;2023-05-07T05:35:19;17.96;67.75
75380;HTU21D;65641;44.714;37.756;2023-05-07T05:36:22;17.98;67.65
75380;HTU21D;65641;44.714;37.756;2023-05-07T05:37:27;17.99;67.55
75380;HTU21D;65641;44.714;37.756;2023-05-07T05:38:34;18.02;67.54
75380;HTU21D;65641;44.714;37.756;2023-05-07T05:39:37;18.03;67.55
75380;HTU21D;65641;44.714;37.756;2023-05-07T05:40:41;18.04;67.55
75380;HTU21D;65641;44.714;37.756;2023-05-07T05:41:44;18.06;67.57
75380;HTU21D;65641;44.714;37.756;2023-05-07T05:42:48;18.07;67.64
75380;HTU21D;65641;44.714;37.756;2023-05-07T05:43:51;18.11;67.59
75380;HTU21D;65641;44.714;37.756;2023-05-07T05:44:54;18.13;67.59
75380;HTU21D;65641;44.714;37.756;2023-05-07T05:45:57;18.15;67.56
75380;HTU21D;65641;44.714;37.756;2023-05-07T05:47:02;18.20;67.59
75380;HTU21D;65641;44.714;37.756;2023-05-07T05:48:05;18.21;67.49
75380;HTU21D;65641;44.714;37.756;2023-05-07T05:49:08;18.27;67.41
75380;HTU21D;65641;44.714;37.756;2023-05-07T05:50:13;18.30;67.29
75380;HTU21D;65641;44.714;37.756;2023-05-07T05:51:16;18.38;67.17
75380;HTU21D;65641;44.714;37.756;2023-05-07T05:52:20;18.43;67.19
75380;HTU21D;65641;44.714;37.756;2023-05-07T05:53:26;18.50;67.05
75380;HTU21D;65641;44.714;37.756;2023-05-07T05:54:29;18.56;66.93
75380;HTU21D;65641;44.714;37.756;2023-05-07T05:55:32;18.64;66.83
75380;HTU21D;65641;44.714;37.756;2023-05-07T05:56:36;18.69;66.62
75380;HTU21D;65641;44.714;37.756;2023-05-07T05:57:41;18.77;66.33
75380;HTU21D;65641;44.714;37.756;2023-05-07T05:58:44;18.84;66.06
75380;HTU21D;65641;44.714;37.756;2023-05-07T05:59:47;18.89;65.79
75380;HTU21D;65641;44.714;37.756;2023-05-07T06:00:50;18.96;65.45
75380;HTU21D;65641;44.714;37.756;2023-05-07T06:01:57;19.00;65.16
75380;HTU21D;65641;44.714;37.756;2023-05-07T06:03:01;19.06;65.10
75380;HTU21D;65641;44.714;37.756;2023-05-07T06:04:04;19.12;64.87
75380;HTU21D;65641;44.714;37.756;2023-05-07T06:05:07;19.16;64.80
75380;HTU21D;65641;44.714;37.756;2023-05-07T06:06:10;19.21;64.68
75380;HTU21D;65641;44.714;37.756;2023-05-07T06:07:13;19.26;64.39
75380;HTU21D;65641;44.714;37.756;2023-05-07T06:08:16;19.32;64.29
75380;HTU21D;65641;44.714;37.756;2023-05-07T06:09:19;19.38;64.09
75380;HTU21D;65641;44.714;37.756;2023-05-07T06:10:22;19.44;64.05
75380;HTU21D;65641;44.714;37.756;2023-05-07T06:11:26;19.51;63.82
75380;HTU21D;65641;44.714;37.756;2023-05-07T06:12:29;19.55;63.83
75380;HTU21D;65641;44.714;37.756;2023-05-07T06:13:32;19.61;63.66
75380;HTU21D;65641;44.714;37.756;2023-05-07T06:14:35;19.69;63.46
75380;HTU21D;65641;44.714;37.756;2023-05-07T06:15:38;19.74;63.18
75380;HTU21D;65641;44.714;37.756;2023-05-07T06:16:44;19.81;63.07
75380;HTU21D;65641;44.714;37.756;2023-05-07T06:17:47;19.87;62.86
75380;HTU21D;65641;44.714;37.756;2023-05-07T06:18:51;19.92;62.78
75380;HTU21D;65641;44.714;37.756;2023-05-07T06:19:54;19.97;62.56
75380;HTU21D;65641;44.714;37.756;2023-05-07T06:20:57;20.03;62.44
75380;HTU21D;65641;44.714;37.756;2023-05-07T06:22:04;20.09;62.25
75380;HTU21D;65641;44.714;37.756;2023-05-07T06:23:08;20.12;62.18
75380;HTU21D;65641;44.714;37.756;2023-05-07T06:24:11;20.18;62.02
75380;HTU21D;65641;44.714;37.756;2023-05-07T06:25:14;20.24;61.92
75380;HTU21D;65641;44.714;37.756;2023-05-07T06:26:18;20.28;61.82
75380;HTU21D;65641;44.714;37.756;2023-05-07T06:27:22;20.32;61.69
75380;HTU21D;65641;44.714;37.756;2023-05-07T06:28:25;20.35;61.73
75380;HTU21D;65641;44.714;37.756;2023-05-07T06:29:29;20.41;61.62
75380;HTU21D;65641;44.714;37.756;2023-05-07T06:30:34;20.47;61.42
75380;HTU21D;65641;44.714;37.756;2023-05-07T06:31:37;20.50;61.34
75380;HTU21D;65641;44.714;37.756;2023-05-07T06:32:43;20.55;61.32